DVH8449 KMEM-KDCA
Flight info
| Callsign | DVH8449 |
|---|---|
| Flight time | N/A |
| Altitude | 33000 |
| Route | GOETZ7 DIYAB WAKOL Q34 SITTR TRUPS5 |
| Aircraft | B722/M-SDFGHRWY/C |
Departure
| Time | 2026-05-04 03:21 |
|---|---|
| Airport | Memphis International Airport (KMEM) |
Arrival
| Time | N/A |
|---|---|
| Airport | Ronald Reagan Washington National Airport (KDCA) |
| Time | Latitude | Longitude | Altitude | Speed | Heading |
|---|---|---|---|---|---|
| 2026-05-04 02:30 | 35.04291 | -89.98104 | 334 ft | 0 kts | 269° |
| 2026-05-04 03:06 | 35.04291 | -89.98096 | 326 ft | 3 kts | 269° |
| 2026-05-04 03:06 | 35.04291 | -89.98071 | 327 ft | 3 kts | 267° |
| 2026-05-04 03:06 | 35.04297 | -89.98048 | 329 ft | 3 kts | 225° |
| 2026-05-04 03:07 | 35.04315 | -89.98040 | 330 ft | 3 kts | 194° |
| 2026-05-04 03:07 | 35.04334 | -89.98034 | 331 ft | 0 kts | 194° |
| 2026-05-04 03:13 | 35.04331 | -89.98034 | 334 ft | 1 kts | 195° |
| 2026-05-04 03:13 | 35.04316 | -89.98040 | 330 ft | 4 kts | 197° |
| 2026-05-04 03:13 | 35.04277 | -89.98046 | 331 ft | 7 kts | 168° |
| 2026-05-04 03:13 | 35.04231 | -89.98011 | 333 ft | 9 kts | 137° |
| 2026-05-04 03:14 | 35.04195 | -89.97944 | 329 ft | 10 kts | 102° |
| 2026-05-04 03:14 | 35.04193 | -89.97849 | 333 ft | 12 kts | 86° |
| 2026-05-04 03:14 | 35.04209 | -89.97764 | 333 ft | 11 kts | 46° |
| 2026-05-04 03:14 | 35.04261 | -89.97743 | 330 ft | 13 kts | 1° |
| 2026-05-04 03:15 | 35.04391 | -89.97746 | 330 ft | 15 kts | 359° |
| 2026-05-04 03:15 | 35.04466 | -89.97747 | 330 ft | 17 kts | 359° |
| 2026-05-04 03:15 | 35.04578 | -89.97750 | 331 ft | 16 kts | 359° |
| 2026-05-04 03:15 | 35.04697 | -89.97753 | 328 ft | 18 kts | 359° |
| 2026-05-04 03:16 | 35.04810 | -89.97757 | 329 ft | 17 kts | 358° |
| 2026-05-04 03:16 | 35.04927 | -89.97760 | 329 ft | 15 kts | 359° |
| 2026-05-04 03:16 | 35.05040 | -89.97761 | 328 ft | 17 kts | 359° |
| 2026-05-04 03:16 | 35.05161 | -89.97763 | 329 ft | 17 kts | 359° |
| 2026-05-04 03:17 | 35.05251 | -89.97764 | 329 ft | 12 kts | 359° |
| 2026-05-04 03:17 | 35.05339 | -89.97773 | 330 ft | 14 kts | 353° |
| 2026-05-04 03:17 | 35.05418 | -89.97771 | 330 ft | 8 kts | 27° |
| 2026-05-04 03:17 | 35.05438 | -89.97741 | 328 ft | 0 kts | 70° |
| 2026-05-04 03:19 | 35.05440 | -89.97735 | 329 ft | 3 kts | 71° |
| 2026-05-04 03:19 | 35.05449 | -89.97675 | 325 ft | 9 kts | 91° |
| 2026-05-04 03:19 | 35.05407 | -89.97620 | 329 ft | 9 kts | 173° |
| 2026-05-04 03:20 | 35.05403 | -89.97620 | 329 ft | 0 kts | 174° |
| 2026-05-04 03:20 | 35.05246 | -89.97615 | 327 ft | 54 kts | 179° |
| 2026-05-04 03:20 | 35.04650 | -89.97603 | 326 ft | 114 kts | 179° |
| 2026-05-04 03:20 | 35.03696 | -89.97582 | 372 ft | 155 kts | 179° |
| 2026-05-04 03:21 | 35.02565 | -89.97590 | 748 ft | 170 kts | 179° |
| 2026-05-04 03:21 | 35.01343 | -89.97494 | 1179 ft | 182 kts | 175° |
| 2026-05-04 03:21 | 35.00063 | -89.97131 | 1632 ft | 198 kts | 167° |
| 2026-05-04 03:21 | 34.98658 | -89.96588 | 2060 ft | 228 kts | 168° |
| 2026-05-04 03:22 | 34.97024 | -89.96036 | 2685 ft | 251 kts | 169° |
| 2026-05-04 03:22 | 34.95348 | -89.95329 | 3761 ft | 264 kts | 155° |
| 2026-05-04 03:22 | 34.93911 | -89.93827 | 4660 ft | 282 kts | 130° |
| 2026-05-04 03:22 | 34.93031 | -89.91700 | 5658 ft | 288 kts | 104° |
| 2026-05-04 03:23 | 34.92701 | -89.89304 | 6836 ft | 286 kts | 93° |
| 2026-05-04 03:23 | 34.92653 | -89.86852 | 7865 ft | 287 kts | 88° |
| 2026-05-04 03:23 | 34.92769 | -89.84447 | 8845 ft | 288 kts | 77° |
| 2026-05-04 03:23 | 34.93449 | -89.82154 | 9914 ft | 288 kts | 62° |
| 2026-05-04 03:24 | 34.94423 | -89.80019 | 10889 ft | 293 kts | 56° |
| 2026-05-04 03:24 | 34.95564 | -89.77816 | 11226 ft | 322 kts | 56° |
| 2026-05-04 03:24 | 34.96765 | -89.75390 | 11745 ft | 338 kts | 58° |
| 2026-05-04 03:24 | 34.97913 | -89.72884 | 12895 ft | 341 kts | 58° |
| 2026-05-04 03:25 | 34.99094 | -89.70334 | 13732 ft | 349 kts | 57° |
| 2026-05-04 03:25 | 35.00320 | -89.67753 | 14565 ft | 354 kts | 57° |
| 2026-05-04 03:25 | 35.01562 | -89.65130 | 15388 ft | 359 kts | 57° |
| 2026-05-04 03:25 | 35.02814 | -89.62454 | 16185 ft | 365 kts | 57° |
| 2026-05-04 03:26 | 35.04079 | -89.59748 | 16968 ft | 370 kts | 56° |
| 2026-05-04 03:26 | 35.05351 | -89.57040 | 17729 ft | 375 kts | 56° |
| 2026-05-04 03:26 | 35.06672 | -89.54225 | 18469 ft | 380 kts | 56° |
| 2026-05-04 03:26 | 35.07972 | -89.51444 | 19112 ft | 385 kts | 56° |
| 2026-05-04 03:27 | 35.09306 | -89.48591 | 19756 ft | 389 kts | 56° |
| 2026-05-04 03:27 | 35.10657 | -89.45702 | 20366 ft | 394 kts | 56° |
| 2026-05-04 03:27 | 35.12023 | -89.42776 | 20978 ft | 399 kts | 56° |
| 2026-05-04 03:27 | 35.13403 | -89.39818 | 21586 ft | 403 kts | 56° |
| 2026-05-04 03:28 | 35.14801 | -89.36819 | 22176 ft | 408 kts | 56° |
| 2026-05-04 03:28 | 35.16211 | -89.33792 | 22752 ft | 412 kts | 56° |
| 2026-05-04 03:28 | 35.17635 | -89.30732 | 23321 ft | 416 kts | 56° |
| 2026-05-04 03:28 | 35.19074 | -89.27637 | 23836 ft | 421 kts | 56° |
| 2026-05-04 03:29 | 35.20526 | -89.24509 | 24310 ft | 424 kts | 56° |
| 2026-05-04 03:29 | 35.21857 | -89.21269 | 24769 ft | 431 kts | 63° |
| 2026-05-04 03:29 | 35.22895 | -89.17799 | 25212 ft | 438 kts | 69° |
| 2026-05-04 03:29 | 35.23718 | -89.14194 | 25658 ft | 442 kts | 71° |
| 2026-05-04 03:30 | 35.24645 | -89.10605 | 26064 ft | 442 kts | 64° |
| 2026-05-04 03:30 | 35.25903 | -89.07173 | 26442 ft | 443 kts | 58° |
| 2026-05-04 03:30 | 35.27385 | -89.03857 | 26877 ft | 444 kts | 55° |
| 2026-05-04 03:30 | 35.28894 | -89.00525 | 27287 ft | 449 kts | 57° |
| 2026-05-04 03:31 | 35.30250 | -88.97115 | 27675 ft | 454 kts | 60° |
| 2026-05-04 03:31 | 35.31605 | -88.93553 | 28067 ft | 456 kts | 59° |
| 2026-05-04 03:31 | 35.33013 | -88.90119 | 28447 ft | 458 kts | 57° |
| 2026-05-04 03:31 | 35.34492 | -88.86648 | 28827 ft | 461 kts | 57° |
| 2026-05-04 03:32 | 35.35935 | -88.83121 | 29219 ft | 465 kts | 58° |
| 2026-05-04 03:32 | 35.37351 | -88.79543 | 29586 ft | 468 kts | 58° |
| 2026-05-04 03:32 | 35.38796 | -88.75955 | 29935 ft | 470 kts | 58° |
| 2026-05-04 03:32 | 35.40277 | -88.72365 | 30266 ft | 473 kts | 57° |
| 2026-05-04 03:33 | 35.41754 | -88.68751 | 30575 ft | 476 kts | 58° |
| 2026-05-04 03:33 | 35.43217 | -88.65104 | 30893 ft | 478 kts | 58° |
| 2026-05-04 03:33 | 35.44689 | -88.61440 | 31189 ft | 479 kts | 57° |
| 2026-05-04 03:33 | 35.46176 | -88.57776 | 31484 ft | 481 kts | 57° |
| 2026-05-04 03:34 | 35.47671 | -88.54091 | 31776 ft | 483 kts | 57° |
| 2026-05-04 03:34 | 35.49163 | -88.50382 | 32060 ft | 485 kts | 57° |
| 2026-05-04 03:34 | 35.50657 | -88.46660 | 32335 ft | 488 kts | 57° |
| 2026-05-04 03:34 | 35.52158 | -88.42928 | 32630 ft | 489 kts | 57° |
| 2026-05-04 03:35 | 35.53647 | -88.39229 | 32894 ft | 490 kts | 57° |
| 2026-05-04 03:35 | 35.55161 | -88.35462 | 33083 ft | 494 kts | 57° |
| 2026-05-04 03:35 | 35.56680 | -88.31670 | 33082 ft | 494 kts | 57° |
| 2026-05-04 03:36 | 35.59688 | -88.24135 | 33073 ft | 487 kts | 57° |
| 2026-05-04 03:36 | 35.62657 | -88.16708 | 33074 ft | 481 kts | 57° |
| 2026-05-04 03:37 | 35.65590 | -88.09342 | 33070 ft | 479 kts | 57° |
| 2026-05-04 03:37 | 35.68522 | -88.01972 | 33084 ft | 481 kts | 57° |
| 2026-05-04 03:38 | 35.71468 | -87.94538 | 33090 ft | 485 kts | 57° |
| 2026-05-04 03:38 | 35.74435 | -87.87042 | 33080 ft | 489 kts | 57° |
| 2026-05-04 03:39 | 35.77420 | -87.79475 | 33087 ft | 492 kts | 57° |
| 2026-05-04 03:39 | 35.80249 | -87.71739 | 33087 ft | 500 kts | 63° |
| 2026-05-04 03:40 | 35.82724 | -87.63698 | 33086 ft | 501 kts | 61° |
| 2026-05-04 03:40 | 35.85437 | -87.55828 | 33083 ft | 504 kts | 61° |
| 2026-05-04 03:41 | 35.88005 | -87.47764 | 33090 ft | 506 kts | 62° |
| 2026-05-04 03:41 | 35.90683 | -87.39732 | 33085 ft | 507 kts | 61° |
| 2026-05-04 03:42 | 35.93301 | -87.31628 | 33094 ft | 509 kts | 62° |
| 2026-05-04 03:42 | 35.95958 | -87.23510 | 33080 ft | 510 kts | 61° |
| 2026-05-04 03:43 | 35.98600 | -87.15356 | 33079 ft | 511 kts | 62° |
| 2026-05-04 03:43 | 36.01243 | -87.07198 | 33070 ft | 512 kts | 62° |
| 2026-05-04 03:44 | 36.03888 | -86.99013 | 33068 ft | 513 kts | 62° |
| 2026-05-04 03:44 | 36.06508 | -86.90868 | 33062 ft | 513 kts | 62° |
| 2026-05-04 03:45 | 36.09146 | -86.82661 | 33064 ft | 514 kts | 62° |
| 2026-05-04 03:45 | 36.11772 | -86.74451 | 33099 ft | 513 kts | 62° |
| 2026-05-04 03:46 | 36.14396 | -86.66253 | 33097 ft | 511 kts | 62° |
| 2026-05-04 03:46 | 36.17055 | -86.58117 | 33094 ft | 509 kts | 61° |
| 2026-05-04 03:47 | 36.19686 | -86.49980 | 33115 ft | 508 kts | 62° |
| 2026-05-04 03:47 | 36.22292 | -86.41924 | 33090 ft | 506 kts | 61° |
| 2026-05-04 03:48 | 36.24900 | -86.33834 | 33085 ft | 505 kts | 61° |
| 2026-05-04 03:48 | 36.27493 | -86.25763 | 33084 ft | 503 kts | 61° |
| 2026-05-04 03:49 | 36.30079 | -86.17705 | 33075 ft | 502 kts | 62° |
| 2026-05-04 03:49 | 36.32645 | -86.09666 | 33069 ft | 500 kts | 62° |
| 2026-05-04 03:50 | 36.35201 | -86.01660 | 33062 ft | 498 kts | 62° |
| 2026-05-04 03:50 | 36.37739 | -85.93669 | 33066 ft | 497 kts | 62° |
| 2026-05-04 03:51 | 36.40256 | -85.85737 | 33054 ft | 496 kts | 62° |
| 2026-05-04 03:51 | 36.42775 | -85.77766 | 33107 ft | 495 kts | 61° |
| 2026-05-04 03:52 | 36.45290 | -85.69790 | 33054 ft | 495 kts | 61° |
| 2026-05-04 03:52 | 36.47798 | -85.61816 | 33049 ft | 495 kts | 61° |
| 2026-05-04 03:53 | 36.50301 | -85.53838 | 33057 ft | 495 kts | 62° |
| 2026-05-04 03:53 | 36.52795 | -85.45857 | 33062 ft | 495 kts | 62° |
| 2026-05-04 03:54 | 36.55288 | -85.37871 | 33071 ft | 495 kts | 62° |
| 2026-05-04 03:54 | 36.57770 | -85.29875 | 33074 ft | 495 kts | 62° |
| 2026-05-04 03:55 | 36.60257 | -85.21874 | 33071 ft | 495 kts | 62° |
| 2026-05-04 03:55 | 36.62729 | -85.13866 | 33079 ft | 495 kts | 62° |
| 2026-05-04 03:56 | 36.65200 | -85.05859 | 33110 ft | 497 kts | 62° |
| 2026-05-04 03:56 | 36.67676 | -84.97794 | 33106 ft | 498 kts | 62° |
| 2026-05-04 03:57 | 36.70132 | -84.89783 | 33118 ft | 498 kts | 62° |
| 2026-05-04 03:57 | 36.72601 | -84.81710 | 33123 ft | 499 kts | 62° |
| 2026-05-04 03:58 | 36.76297 | -84.69571 | 33118 ft | 499 kts | 62° |
| 2026-05-04 03:58 | 36.78756 | -84.61474 | 33115 ft | 499 kts | 62° |
| 2026-05-04 03:59 | 36.81189 | -84.53420 | 33091 ft | 499 kts | 62° |
| 2026-05-04 03:59 | 36.83641 | -84.45308 | 33087 ft | 500 kts | 62° |
| 2026-05-04 04:00 | 36.86084 | -84.37176 | 33155 ft | 500 kts | 62° |
| 2026-05-04 04:00 | 36.88531 | -84.29021 | 33108 ft | 502 kts | 62° |
| 2026-05-04 04:01 | 36.90976 | -84.20844 | 33114 ft | 503 kts | 62° |
| 2026-05-04 04:01 | 36.93418 | -84.12654 | 33113 ft | 503 kts | 62° |
| 2026-05-04 04:02 | 36.95859 | -84.04443 | 33106 ft | 504 kts | 62° |
| 2026-05-04 04:02 | 36.98294 | -83.96226 | 33106 ft | 504 kts | 63° |
| 2026-05-04 04:03 | 37.00728 | -83.87992 | 33102 ft | 505 kts | 63° |
| 2026-05-04 04:03 | 37.03156 | -83.79745 | 33093 ft | 505 kts | 63° |
| 2026-05-04 04:04 | 37.05172 | -83.72889 | 33086 ft | 505 kts | 63° |
| 2026-05-04 04:04 | 37.07597 | -83.64622 | 33068 ft | 507 kts | 63° |
| 2026-05-04 04:05 | 37.10411 | -83.54972 | 33071 ft | 507 kts | 63° |
| 2026-05-04 04:05 | 37.12443 | -83.48011 | 33078 ft | 507 kts | 64° |
| 2026-05-04 04:06 | 37.14851 | -83.39697 | 33076 ft | 508 kts | 64° |
| 2026-05-04 04:06 | 37.17265 | -83.31368 | 33075 ft | 508 kts | 64° |
| 2026-05-04 04:07 | 37.19654 | -83.23083 | 33072 ft | 509 kts | 64° |
| 2026-05-04 04:07 | 37.22059 | -83.14731 | 33070 ft | 509 kts | 64° |
| 2026-05-04 04:08 | 37.24454 | -83.06372 | 33063 ft | 509 kts | 65° |
| 2026-05-04 04:08 | 37.26849 | -82.98004 | 33124 ft | 509 kts | 65° |
| 2026-05-04 04:09 | 37.29241 | -82.89605 | 33066 ft | 510 kts | 65° |
| 2026-05-04 04:09 | 37.31620 | -82.81224 | 33062 ft | 509 kts | 64° |
| 2026-05-04 04:10 | 37.33997 | -82.72851 | 33067 ft | 510 kts | 65° |
| 2026-05-04 04:10 | 37.36363 | -82.64440 | 33067 ft | 509 kts | 65° |
| 2026-05-04 04:11 | 37.38736 | -82.56046 | 33078 ft | 509 kts | 66° |
| 2026-05-04 04:11 | 37.41072 | -82.47691 | 33041 ft | 510 kts | 65° |
| 2026-05-04 04:12 | 37.43434 | -82.39277 | 33041 ft | 510 kts | 66° |
| 2026-05-04 04:12 | 37.45776 | -82.30855 | 33049 ft | 508 kts | 66° |
| 2026-05-04 04:13 | 37.48119 | -82.22434 | 33053 ft | 510 kts | 66° |
| 2026-05-04 04:13 | 37.50455 | -82.13993 | 33051 ft | 511 kts | 66° |
| 2026-05-04 04:14 | 37.52795 | -82.05541 | 33057 ft | 511 kts | 66° |
| 2026-05-04 04:14 | 37.55112 | -81.97076 | 33053 ft | 510 kts | 66° |
| 2026-05-04 04:15 | 37.57448 | -81.88620 | 33057 ft | 511 kts | 66° |
| 2026-05-04 04:15 | 37.59747 | -81.80173 | 33061 ft | 512 kts | 66° |
| 2026-05-04 04:16 | 37.62068 | -81.71681 | 33066 ft | 512 kts | 67° |
| 2026-05-04 04:16 | 37.64377 | -81.63182 | 33056 ft | 512 kts | 68° |
| 2026-05-04 04:17 | 37.66683 | -81.54650 | 33066 ft | 514 kts | 67° |
| 2026-05-04 04:17 | 37.68995 | -81.46094 | 33081 ft | 515 kts | 67° |
| 2026-05-04 04:18 | 37.71299 | -81.37528 | 33089 ft | 515 kts | 67° |
| 2026-05-04 04:18 | 37.73596 | -81.28955 | 33099 ft | 516 kts | 67° |
| 2026-05-04 04:19 | 37.75881 | -81.20410 | 33090 ft | 516 kts | 68° |
| 2026-05-04 04:19 | 37.78197 | -81.11829 | 33089 ft | 515 kts | 66° |
| 2026-05-04 04:20 | 37.81082 | -81.03582 | 33088 ft | 511 kts | 59° |
| 2026-05-04 04:20 | 37.84082 | -80.95417 | 33095 ft | 514 kts | 64° |
| 2026-05-04 04:21 | 37.86910 | -80.87097 | 33088 ft | 513 kts | 62° |
| 2026-05-04 04:21 | 37.89903 | -80.78889 | 33092 ft | 514 kts | 63° |
| 2026-05-04 04:22 | 37.92802 | -80.70591 | 33096 ft | 515 kts | 62° |
| 2026-05-04 04:22 | 37.95767 | -80.62339 | 33091 ft | 515 kts | 62° |
| 2026-05-04 04:23 | 37.98676 | -80.54046 | 33087 ft | 515 kts | 62° |
| 2026-05-04 04:23 | 38.01619 | -80.45755 | 33097 ft | 515 kts | 63° |
| 2026-05-04 04:24 | 38.04515 | -80.37486 | 33094 ft | 516 kts | 63° |
| 2026-05-04 04:24 | 38.07442 | -80.29164 | 33096 ft | 517 kts | 63° |
| 2026-05-04 04:25 | 38.10374 | -80.20813 | 33097 ft | 517 kts | 63° |
| 2026-05-04 04:25 | 38.13354 | -80.12499 | 33090 ft | 518 kts | 63° |
| 2026-05-04 04:26 | 38.16305 | -80.04129 | 33087 ft | 519 kts | 63° |
| 2026-05-04 04:26 | 38.19273 | -79.95754 | 33087 ft | 520 kts | 63° |
| 2026-05-04 04:27 | 38.22227 | -79.87353 | 33126 ft | 521 kts | 63° |
| 2026-05-04 04:27 | 38.25196 | -79.78920 | 33084 ft | 522 kts | 63° |
| 2026-05-04 04:28 | 38.28139 | -79.70480 | 33080 ft | 522 kts | 64° |
| 2026-05-04 04:28 | 38.31055 | -79.62010 | 33075 ft | 523 kts | 64° |
| 2026-05-04 04:29 | 38.33953 | -79.53562 | 33017 ft | 523 kts | 64° |
| 2026-05-04 04:29 | 38.36848 | -79.45117 | 32952 ft | 516 kts | 64° |
| 2026-05-04 04:30 | 38.38273 | -79.40938 | 32511 ft | 511 kts | 64° |
| 2026-05-04 04:30 | 38.39684 | -79.36797 | 31966 ft | 504 kts | 63° |
| 2026-05-04 04:30 | 38.41073 | -79.32729 | 31513 ft | 497 kts | 63° |
| 2026-05-04 04:30 | 38.42350 | -79.28654 | 30984 ft | 493 kts | 69° |
| 2026-05-04 04:31 | 38.43292 | -79.24474 | 30480 ft | 489 kts | 74° |
| 2026-05-04 04:31 | 38.43976 | -79.20255 | 29969 ft | 484 kts | 78° |
| 2026-05-04 04:31 | 38.44562 | -79.16041 | 29391 ft | 479 kts | 77° |
| 2026-05-04 04:31 | 38.45268 | -79.11911 | 28826 ft | 474 kts | 73° |
| 2026-05-04 04:32 | 38.46078 | -79.07853 | 28275 ft | 470 kts | 73° |
| 2026-05-04 04:32 | 38.46821 | -79.03802 | 27730 ft | 468 kts | 76° |
| 2026-05-04 04:32 | 38.47474 | -78.99738 | 27179 ft | 467 kts | 76° |
| 2026-05-04 04:32 | 38.48145 | -78.95688 | 26642 ft | 466 kts | 75° |
| 2026-05-04 04:33 | 38.48873 | -78.91667 | 26114 ft | 465 kts | 74° |
| 2026-05-04 04:33 | 38.49598 | -78.87645 | 25596 ft | 463 kts | 75° |
| 2026-05-04 04:33 | 38.50272 | -78.83632 | 25085 ft | 461 kts | 75° |
| 2026-05-04 04:33 | 38.50893 | -78.79624 | 24581 ft | 458 kts | 76° |
| 2026-05-04 04:34 | 38.51497 | -78.75640 | 24086 ft | 455 kts | 76° |
| 2026-05-04 04:34 | 38.52113 | -78.71747 | 23602 ft | 451 kts | 75° |
| 2026-05-04 04:34 | 38.52744 | -78.67837 | 23027 ft | 447 kts | 75° |
| 2026-05-04 04:34 | 38.53354 | -78.63961 | 22448 ft | 442 kts | 76° |
| 2026-05-04 04:35 | 38.53954 | -78.60137 | 21895 ft | 437 kts | 76° |
| 2026-05-04 04:35 | 38.54559 | -78.56362 | 21354 ft | 432 kts | 75° |
| 2026-05-04 04:35 | 38.55161 | -78.52627 | 20820 ft | 426 kts | 76° |
| 2026-05-04 04:35 | 38.55745 | -78.48943 | 20316 ft | 421 kts | 76° |
| 2026-05-04 04:36 | 38.56317 | -78.45304 | 19819 ft | 415 kts | 76° |
| 2026-05-04 04:36 | 38.56884 | -78.41715 | 19326 ft | 410 kts | 76° |
| 2026-05-04 04:36 | 38.57454 | -78.38165 | 18853 ft | 405 kts | 76° |
| 2026-05-04 04:36 | 38.58058 | -78.34677 | 18366 ft | 399 kts | 75° |
| 2026-05-04 04:37 | 38.59873 | -78.24549 | 16866 ft | 379 kts | 71° |
| 2026-05-04 04:37 | 38.60709 | -78.21389 | 16403 ft | 371 kts | 64° |
| 2026-05-04 04:38 | 38.61760 | -78.18417 | 15967 ft | 364 kts | 60° |
| 2026-05-04 04:38 | 38.62825 | -78.15505 | 15584 ft | 359 kts | 62° |
| 2026-05-04 04:38 | 38.63761 | -78.12565 | 15196 ft | 354 kts | 65° |
| 2026-05-04 04:38 | 38.64632 | -78.09676 | 14832 ft | 349 kts | 65° |
| 2026-05-04 04:39 | 38.65548 | -78.06824 | 14462 ft | 344 kts | 63° |
| 2026-05-04 04:39 | 38.66481 | -78.04014 | 14092 ft | 341 kts | 63° |
| 2026-05-04 04:39 | 38.67381 | -78.01231 | 13699 ft | 337 kts | 64° |
| 2026-05-04 04:39 | 38.68256 | -77.98465 | 13287 ft | 333 kts | 64° |
| 2026-05-04 04:40 | 38.69127 | -77.95733 | 12896 ft | 330 kts | 64° |
| 2026-05-04 04:40 | 38.70001 | -77.93026 | 12500 ft | 327 kts | 64° |
| 2026-05-04 04:40 | 38.70860 | -77.90351 | 12117 ft | 324 kts | 65° |
| 2026-05-04 04:40 | 38.71710 | -77.87684 | 11718 ft | 321 kts | 65° |
| 2026-05-04 04:41 | 38.72549 | -77.85054 | 11371 ft | 317 kts | 66° |
| 2026-05-04 04:41 | 38.73504 | -77.82551 | 11027 ft | 309 kts | 53° |
| 2026-05-04 04:41 | 38.74803 | -77.80395 | 10716 ft | 303 kts | 45° |
| 2026-05-04 04:41 | 38.76223 | -77.78469 | 10401 ft | 298 kts | 42° |
| 2026-05-04 04:42 | 38.77644 | -77.76546 | 10078 ft | 297 kts | 44° |
| 2026-05-04 04:42 | 38.79000 | -77.74563 | 9750 ft | 294 kts | 46° |
| 2026-05-04 04:42 | 38.80329 | -77.72595 | 9434 ft | 290 kts | 45° |
| 2026-05-04 04:42 | 38.81664 | -77.70674 | 9110 ft | 287 kts | 45° |
| 2026-05-04 04:43 | 38.82978 | -77.68769 | 8788 ft | 284 kts | 46° |
| 2026-05-04 04:43 | 38.84254 | -77.66842 | 8491 ft | 281 kts | 47° |
| 2026-05-04 04:43 | 38.85507 | -77.64934 | 8194 ft | 278 kts | 47° |
| 2026-05-04 04:43 | 38.86759 | -77.63054 | 7907 ft | 275 kts | 47° |
| 2026-05-04 04:44 | 38.87995 | -77.61202 | 7645 ft | 272 kts | 47° |
| 2026-05-04 04:44 | 38.89215 | -77.59365 | 7390 ft | 269 kts | 48° |
| 2026-05-04 04:44 | 38.90421 | -77.57547 | 7130 ft | 266 kts | 48° |
| 2026-05-04 04:44 | 38.91614 | -77.55749 | 6880 ft | 263 kts | 48° |
| 2026-05-04 04:45 | 38.92795 | -77.53968 | 6630 ft | 261 kts | 48° |
| 2026-05-04 04:45 | 38.93961 | -77.52192 | 6398 ft | 258 kts | 51° |
| 2026-05-04 04:45 | 38.94891 | -77.50240 | 6143 ft | 256 kts | 65° |
| 2026-05-04 04:47 | 38.98839 | -77.38107 | 4759 ft | 230 kts | 66° |
| 2026-05-04 04:47 | 38.99462 | -77.36237 | 4511 ft | 226 kts | 66° |
| 2026-05-04 04:47 | 39.00066 | -77.34427 | 4275 ft | 212 kts | 66° |
| 2026-05-04 04:47 | 39.00623 | -77.32755 | 4018 ft | 195 kts | 66° |
| 2026-05-04 04:48 | 39.01145 | -77.31203 | 3747 ft | 184 kts | 66° |
| 2026-05-04 04:49 | 39.03073 | -77.25217 | 2756 ft | 182 kts | 82° |
| 2026-05-04 04:49 | 39.02917 | -77.23629 | 2524 ft | 180 kts | 112° |
| 2026-05-04 04:49 | 39.02236 | -77.22313 | 2290 ft | 176 kts | 137° |
| 2026-05-04 04:49 | 39.01331 | -77.21253 | 2088 ft | 176 kts | 141° |
| 2026-05-04 04:50 | 39.00729 | -77.20551 | 2003 ft | 175 kts | 140° |
| 2026-05-04 04:50 | 38.99581 | -77.19162 | 1997 ft | 172 kts | 139° |
| 2026-05-04 04:50 | 38.98676 | -77.18069 | 2019 ft | 185 kts | 139° |
| 2026-05-04 04:50 | 38.97745 | -77.16901 | 2009 ft | 187 kts | 137° |
| 2026-05-04 04:51 | 38.96829 | -77.15733 | 2008 ft | 184 kts | 138° |
| 2026-05-04 04:51 | 38.95893 | -77.14621 | 2000 ft | 182 kts | 141° |
| 2026-05-04 04:51 | 38.95246 | -77.13912 | 1996 ft | 181 kts | 142° |
| 2026-05-04 04:51 | 38.94308 | -77.12883 | 1991 ft | 177 kts | 142° |
| 2026-05-04 04:52 | 38.93399 | -77.11890 | 1930 ft | 168 kts | 144° |
| 2026-05-04 04:52 | 38.92372 | -77.11140 | 1738 ft | 166 kts | 158° |
| 2026-05-04 04:52 | 38.91379 | -77.10491 | 1534 ft | 159 kts | 146° |
| 2026-05-04 04:52 | 38.90725 | -77.09426 | 1313 ft | 148 kts | 118° |
| 2026-05-04 04:53 | 38.90413 | -77.08201 | 1085 ft | 141 kts | 106° |
| 2026-05-04 04:53 | 38.89998 | -77.07120 | 866 ft | 132 kts | 133° |
| 2026-05-04 04:53 | 38.89376 | -77.06315 | 707 ft | 124 kts | 135° |
| 2026-05-04 04:53 | 38.88800 | -77.05496 | 518 ft | 124 kts | 134° |
| 2026-05-04 04:54 | 38.88214 | -77.04694 | 330 ft | 122 kts | 135° |
| 2026-05-04 04:54 | 38.87561 | -77.04051 | 143 ft | 113 kts | 162° |
| 2026-05-04 04:54 | 38.86748 | -77.03951 | 168 ft | 121 kts | 180° |
| 2026-05-04 04:54 | 38.85435 | -77.03719 | 459 ft | 293 kts | 172° |
| 2026-05-04 04:55 | 38.84409 | -77.03527 | 515 ft | 294 kts | 172° |